Ruidoso Downs, New Mexico
Current Conditions -  °F | °C
As of 1:55 PM on Tuesday 25 Nov 2014 (Local Time) from KSRR Reporting Station
Clear Clear  
Wind Chill: 35°   Ceiling: Unl
Heat Index: 45°   Visibility: 10mi
Dew Point: -13°   Wind: 25mph
Humidity: 9%   Direction: 310°NW
Pressure: 30.22"   Gusts: 40mph
Location:  33.33°N, 105.6°W
Report Text: KSRR 252055Z AUTO 31022G35KT 10SM CLR 07/M25 A3022 RMK AO2
Loading
Personal Weather Stations






























Interactive Weather Map New forecast layout! Learn more

10-Day Weather Forecast

Advertisements
Track Severe Weather on mobile